sensor_id;sensor_type;location;lat;lon;timestamp;temperature;humidity
15879;DHT22;61999;51.514;14.614;2023-07-31T00:02:14;13.20;64.10
15879;DHT22;61999;51.514;14.614;2023-07-31T00:04:42;13.40;62.70
15879;DHT22;61999;51.514;14.614;2023-07-31T00:07:11;13.40;62.70
15879;DHT22;61999;51.514;14.614;2023-07-31T00:09:39;13.50;62.10
15879;DHT22;61999;51.514;14.614;2023-07-31T00:12:08;13.40;62.90
15879;DHT22;61999;51.514;14.614;2023-07-31T00:14:36;13.10;64.00
15879;DHT22;61999;51.514;14.614;2023-07-31T00:17:04;13.00;65.80
15879;DHT22;61999;51.514;14.614;2023-07-31T00:19:32;12.90;66.00
15879;DHT22;61999;51.514;14.614;2023-07-31T00:22:00;12.80;66.80
15879;DHT22;61999;51.514;14.614;2023-07-31T00:24:30;12.60;66.40
15879;DHT22;61999;51.514;14.614;2023-07-31T00:26:57;12.60;67.50
15879;DHT22;61999;51.514;14.614;2023-07-31T00:29:25;12.60;67.90
15879;DHT22;61999;51.514;14.614;2023-07-31T00:31:53;12.60;67.60
15879;DHT22;61999;51.514;14.614;2023-07-31T00:34:21;12.50;67.60
15879;DHT22;61999;51.514;14.614;2023-07-31T00:36:49;12.70;67.00
15879;DHT22;61999;51.514;14.614;2023-07-31T00:39:17;12.70;66.30
15879;DHT22;61999;51.514;14.614;2023-07-31T00:41:46;12.50;66.90
15879;DHT22;61999;51.514;14.614;2023-07-31T00:44:14;12.60;67.70
15879;DHT22;61999;51.514;14.614;2023-07-31T00:46:42;12.50;67.90
15879;DHT22;61999;51.514;14.614;2023-07-31T00:49:12;12.60;66.70
15879;DHT22;61999;51.514;14.614;2023-07-31T00:51:40;12.80;65.10
15879;DHT22;61999;51.514;14.614;2023-07-31T00:54:09;12.90;65.40
15879;DHT22;61999;51.514;14.614;2023-07-31T00:56:38;12.70;66.20
15879;DHT22;61999;51.514;14.614;2023-07-31T00:59:09;12.60;67.30
15879;DHT22;61999;51.514;14.614;2023-07-31T01:01:37;12.70;65.70
15879;DHT22;61999;51.514;14.614;2023-07-31T01:04:06;12.80;64.90
15879;DHT22;61999;51.514;14.614;2023-07-31T01:06:37;12.80;65.80
15879;DHT22;61999;51.514;14.614;2023-07-31T01:09:20;12.80;65.10
15879;DHT22;61999;51.514;14.614;2023-07-31T01:11:57;12.80;66.00
15879;DHT22;61999;51.514;14.614;2023-07-31T01:14:30;13.00;63.90
15879;DHT22;61999;51.514;14.614;2023-07-31T01:16:58;13.10;63.00
15879;DHT22;61999;51.514;14.614;2023-07-31T01:19:26;13.10;64.00
15879;DHT22;61999;51.514;14.614;2023-07-31T01:22:16;13.10;63.30
15879;DHT22;61999;51.514;14.614;2023-07-31T01:25:10;13.10;63.80
15879;DHT22;61999;51.514;14.614;2023-07-31T01:27:53;13.00;63.90
15879;DHT22;61999;51.514;14.614;2023-07-31T01:30:31;13.20;61.80
15879;DHT22;61999;51.514;14.614;2023-07-31T01:33:03;13.10;62.30
15879;DHT22;61999;51.514;14.614;2023-07-31T01:35:33;13.10;62.00
15879;DHT22;61999;51.514;14.614;2023-07-31T01:38:02;13.20;61.10
15879;DHT22;61999;51.514;14.614;2023-07-31T01:40:30;13.30;60.10
15879;DHT22;61999;51.514;14.614;2023-07-31T01:42:59;13.40;60.00
15879;DHT22;61999;51.514;14.614;2023-07-31T01:45:27;13.20;60.30
15879;DHT22;61999;51.514;14.614;2023-07-31T01:47:55;13.20;60.90
15879;DHT22;61999;51.514;14.614;2023-07-31T01:50:23;13.00;61.20
15879;DHT22;61999;51.514;14.614;2023-07-31T01:52:51;13.00;60.70
15879;DHT22;61999;51.514;14.614;2023-07-31T01:55:19;13.00;60.90
15879;DHT22;61999;51.514;14.614;2023-07-31T01:57:47;13.00;60.90
15879;DHT22;61999;51.514;14.614;2023-07-31T02:00:16;12.90;61.10
15879;DHT22;61999;51.514;14.614;2023-07-31T02:02:44;12.90;61.50
15879;DHT22;61999;51.514;14.614;2023-07-31T02:05:12;12.80;61.90
15879;DHT22;61999;51.514;14.614;2023-07-31T02:07:40;12.80;61.90
15879;DHT22;61999;51.514;14.614;2023-07-31T02:10:08;12.70;62.80
15879;DHT22;61999;51.514;14.614;2023-07-31T02:12:36;12.70;63.10
15879;DHT22;61999;51.514;14.614;2023-07-31T02:15:05;12.70;62.20
15879;DHT22;61999;51.514;14.614;2023-07-31T02:17:35;12.70;63.20
15879;DHT22;61999;51.514;14.614;2023-07-31T02:20:04;12.70;62.30
15879;DHT22;61999;51.514;14.614;2023-07-31T02:22:32;12.50;62.90
15879;DHT22;61999;51.514;14.614;2023-07-31T02:25:00;12.50;64.60
15879;DHT22;61999;51.514;14.614;2023-07-31T02:27:28;12.50;64.20
15879;DHT22;61999;51.514;14.614;2023-07-31T02:29:56;12.70;62.50
15879;DHT22;61999;51.514;14.614;2023-07-31T02:32:25;12.80;62.50
15879;DHT22;61999;51.514;14.614;2023-07-31T02:34:55;12.70;64.20
15879;DHT22;61999;51.514;14.614;2023-07-31T02:37:23;12.50;64.90
15879;DHT22;61999;51.514;14.614;2023-07-31T02:39:51;12.40;66.10
15879;DHT22;61999;51.514;14.614;2023-07-31T02:42:19;12.40;66.80
15879;DHT22;61999;51.514;14.614;2023-07-31T02:44:47;12.30;66.90
15879;DHT22;61999;51.514;14.614;2023-07-31T02:47:15;12.30;67.10
15879;DHT22;61999;51.514;14.614;2023-07-31T02:49:43;12.30;67.30
15879;DHT22;61999;51.514;14.614;2023-07-31T02:52:12;12.20;67.60
15879;DHT22;61999;51.514;14.614;2023-07-31T02:54:40;12.20;67.70
15879;DHT22;61999;51.514;14.614;2023-07-31T02:57:08;12.30;68.50
15879;DHT22;61999;51.514;14.614;2023-07-31T02:59:36;12.40;67.40
15879;DHT22;61999;51.514;14.614;2023-07-31T03:02:04;12.30;67.50
15879;DHT22;61999;51.514;14.614;2023-07-31T03:04:31;12.40;66.20
15879;DHT22;61999;51.514;14.614;2023-07-31T03:06:59;12.40;66.90
15879;DHT22;61999;51.514;14.614;2023-07-31T03:09:29;12.30;67.20
15879;DHT22;61999;51.514;14.614;2023-07-31T03:11:57;12.40;66.90
15879;DHT22;61999;51.514;14.614;2023-07-31T03:14:25;12.30;66.50
15879;DHT22;61999;51.514;14.614;2023-07-31T03:16:53;12.30;67.90
15879;DHT22;61999;51.514;14.614;2023-07-31T03:19:21;12.30;68.10
15879;DHT22;61999;51.514;14.614;2023-07-31T03:21:49;12.30;68.50
15879;DHT22;61999;51.514;14.614;2023-07-31T03:24:17;12.60;66.00
15879;DHT22;61999;51.514;14.614;2023-07-31T03:26:47;12.50;66.90
15879;DHT22;61999;51.514;14.614;2023-07-31T03:29:14;12.40;67.10
15879;DHT22;61999;51.514;14.614;2023-07-31T03:31:42;12.60;65.70
15879;DHT22;61999;51.514;14.614;2023-07-31T03:34:11;12.70;65.40
15879;DHT22;61999;51.514;14.614;2023-07-31T03:36:39;12.90;62.10
15879;DHT22;61999;51.514;14.614;2023-07-31T03:39:07;12.90;62.70
15879;DHT22;61999;51.514;14.614;2023-07-31T03:41:35;12.90;63.80
15879;DHT22;61999;51.514;14.614;2023-07-31T03:44:05;13.20;60.30
15879;DHT22;61999;51.514;14.614;2023-07-31T03:46:32;13.20;60.60
15879;DHT22;61999;51.514;14.614;2023-07-31T03:49:02;13.20;61.40
15879;DHT22;61999;51.514;14.614;2023-07-31T03:51:30;13.20;60.20
15879;DHT22;61999;51.514;14.614;2023-07-31T03:53:58;13.30;60.00
15879;DHT22;61999;51.514;14.614;2023-07-31T03:56:27;13.20;61.40
15879;DHT22;61999;51.514;14.614;2023-07-31T03:58:55;13.40;59.50
15879;DHT22;61999;51.514;14.614;2023-07-31T04:01:24;13.40;58.90
15879;DHT22;61999;51.514;14.614;2023-07-31T04:03:52;13.40;59.60
15879;DHT22;61999;51.514;14.614;2023-07-31T04:06:20;13.70;57.90
15879;DHT22;61999;51.514;14.614;2023-07-31T04:08:48;14.00;56.60
15879;DHT22;61999;51.514;14.614;2023-07-31T04:11:16;14.20;56.00
15879;DHT22;61999;51.514;14.614;2023-07-31T04:13:44;14.10;55.90
15879;DHT22;61999;51.514;14.614;2023-07-31T04:16:12;14.00;56.30
15879;DHT22;61999;51.514;14.614;2023-07-31T04:18:42;14.00;56.60
15879;DHT22;61999;51.514;14.614;2023-07-31T04:21:10;13.70;56.80
15879;DHT22;61999;51.514;14.614;2023-07-31T04:23:38;13.50;57.20
15879;DHT22;61999;51.514;14.614;2023-07-31T04:26:06;13.30;57.60
15879;DHT22;61999;51.514;14.614;2023-07-31T04:28:34;13.20;57.90
15879;DHT22;61999;51.514;14.614;2023-07-31T04:31:02;13.10;58.70
15879;DHT22;61999;51.514;14.614;2023-07-31T04:33:30;13.10;57.60
15879;DHT22;61999;51.514;14.614;2023-07-31T04:36:00;13.00;58.20
15879;DHT22;61999;51.514;14.614;2023-07-31T04:38:28;12.90;58.70
15879;DHT22;61999;51.514;14.614;2023-07-31T04:40:56;12.80;58.70
15879;DHT22;61999;51.514;14.614;2023-07-31T04:43:24;12.80;58.60
15879;DHT22;61999;51.514;14.614;2023-07-31T04:45:52;12.50;59.10
15879;DHT22;61999;51.514;14.614;2023-07-31T04:48:20;12.40;59.50
15879;DHT22;61999;51.514;14.614;2023-07-31T04:50:48;12.50;59.50
15879;DHT22;61999;51.514;14.614;2023-07-31T04:53:18;12.70;59.80
15879;DHT22;61999;51.514;14.614;2023-07-31T04:55:46;12.60;60.30
15879;DHT22;61999;51.514;14.614;2023-07-31T04:58:14;12.80;59.60
15879;DHT22;61999;51.514;14.614;2023-07-31T05:00:42;13.00;59.20
15879;DHT22;61999;51.514;14.614;2023-07-31T05:03:10;12.90;59.30
15879;DHT22;61999;51.514;14.614;2023-07-31T05:05:38;12.60;60.30
15879;DHT22;61999;51.514;14.614;2023-07-31T05:08:06;12.30;62.20
15879;DHT22;61999;51.514;14.614;2023-07-31T05:10:35;12.00;65.30
15879;DHT22;61999;51.514;14.614;2023-07-31T05:13:03;11.70;67.50
15879;DHT22;61999;51.514;14.614;2023-07-31T05:15:31;11.70;68.10
15879;DHT22;61999;51.514;14.614;2023-07-31T05:17:59;11.60;67.10
15879;DHT22;61999;51.514;14.614;2023-07-31T05:20:27;11.80;67.30
15879;DHT22;61999;51.514;14.614;2023-07-31T05:22:55;12.10;65.60
15879;DHT22;61999;51.514;14.614;2023-07-31T05:25:23;12.00;65.40
15879;DHT22;61999;51.514;14.614;2023-07-31T05:27:52;12.30;65.10
15879;DHT22;61999;51.514;14.614;2023-07-31T05:30:20;12.50;63.70
15879;DHT22;61999;51.514;14.614;2023-07-31T05:32:48;12.60;63.20
15879;DHT22;61999;51.514;14.614;2023-07-31T05:35:16;12.50;64.40
15879;DHT22;61999;51.514;14.614;2023-07-31T05:37:44;12.30;64.70
15879;DHT22;61999;51.514;14.614;2023-07-31T05:40:12;12.10;66.20
15879;DHT22;61999;51.514;14.614;2023-07-31T05:42:40;11.90;66.70
15879;DHT22;61999;51.514;14.614;2023-07-31T05:45:10;11.80;67.60
15879;DHT22;61999;51.514;14.614;2023-07-31T05:47:40;11.90;67.30
15879;DHT22;61999;51.514;14.614;2023-07-31T05:50:08;12.00;67.50
15879;DHT22;61999;51.514;14.614;2023-07-31T05:52:37;12.30;67.50
15879;DHT22;61999;51.514;14.614;2023-07-31T05:55:05;12.40;66.40
15879;DHT22;61999;51.514;14.614;2023-07-31T05:57:37;12.30;66.50
15879;DHT22;61999;51.514;14.614;2023-07-31T06:00:07;12.20;67.80
15879;DHT22;61999;51.514;14.614;2023-07-31T06:02:37;12.60;66.00
15879;DHT22;61999;51.514;14.614;2023-07-31T06:05:06;12.60;66.20
15879;DHT22;61999;51.514;14.614;2023-07-31T06:07:34;12.90;65.30
15879;DHT22;61999;51.514;14.614;2023-07-31T06:10:03;13.10;64.90
15879;DHT22;61999;51.514;14.614;2023-07-31T06:12:32;13.00;64.60
15879;DHT22;61999;51.514;14.614;2023-07-31T06:15:02;12.90;66.20
15879;DHT22;61999;51.514;14.614;2023-07-31T06:17:31;13.10;65.20
15879;DHT22;61999;51.514;14.614;2023-07-31T06:20:01;13.10;65.50
15879;DHT22;61999;51.514;14.614;2023-07-31T06:22:31;13.20;65.40
15879;DHT22;61999;51.514;14.614;2023-07-31T06:24:59;13.40;63.90
15879;DHT22;61999;51.514;14.614;2023-07-31T06:27:28;13.30;63.60
15879;DHT22;61999;51.514;14.614;2023-07-31T06:29:56;13.30;64.50
15879;DHT22;61999;51.514;14.614;2023-07-31T06:32:24;13.80;62.90
15879;DHT22;61999;51.514;14.614;2023-07-31T06:34:52;14.10;62.30
15879;DHT22;61999;51.514;14.614;2023-07-31T06:37:22;14.00;62.00
15879;DHT22;61999;51.514;14.614;2023-07-31T06:39:50;13.60;63.80
15879;DHT22;61999;51.514;14.614;2023-07-31T06:42:18;13.70;63.10
15879;DHT22;61999;51.514;14.614;2023-07-31T06:44:46;13.80;63.60
15879;DHT22;61999;51.514;14.614;2023-07-31T06:47:14;13.70;62.90
15879;DHT22;61999;51.514;14.614;2023-07-31T06:49:42;13.50;63.90
15879;DHT22;61999;51.514;14.614;2023-07-31T06:52:10;13.30;64.20
15879;DHT22;61999;51.514;14.614;2023-07-31T06:54:40;13.30;65.20
15879;DHT22;61999;51.514;14.614;2023-07-31T06:57:08;13.40;64.80
15879;DHT22;61999;51.514;14.614;2023-07-31T06:59:36;13.40;65.50
15879;DHT22;61999;51.514;14.614;2023-07-31T07:02:04;13.50;65.40
15879;DHT22;61999;51.514;14.614;2023-07-31T07:04:33;13.60;65.60
15879;DHT22;61999;51.514;14.614;2023-07-31T07:07:01;14.10;63.00
15879;DHT22;61999;51.514;14.614;2023-07-31T07:09:28;14.20;63.30
15879;DHT22;61999;51.514;14.614;2023-07-31T07:11:58;13.90;64.80
15879;DHT22;61999;51.514;14.614;2023-07-31T07:14:26;13.50;66.70
15879;DHT22;61999;51.514;14.614;2023-07-31T07:16:54;13.40;66.90
15879;DHT22;61999;51.514;14.614;2023-07-31T07:19:22;12.80;68.80
15879;DHT22;61999;51.514;14.614;2023-07-31T07:21:50;12.40;70.70
15879;DHT22;61999;51.514;14.614;2023-07-31T07:24:18;12.30;71.00
15879;DHT22;61999;51.514;14.614;2023-07-31T07:26:46;12.10;71.90
15879;DHT22;61999;51.514;14.614;2023-07-31T07:29:15;12.40;71.40
15879;DHT22;61999;51.514;14.614;2023-07-31T07:31:43;12.00;71.80
15879;DHT22;61999;51.514;14.614;2023-07-31T07:34:11;12.30;72.80
15879;DHT22;61999;51.514;14.614;2023-07-31T07:36:39;12.40;72.00
15879;DHT22;61999;51.514;14.614;2023-07-31T07:39:09;12.40;71.50
15879;DHT22;61999;51.514;14.614;2023-07-31T07:41:37;12.70;71.40
15879;DHT22;61999;51.514;14.614;2023-07-31T07:44:07;12.80;70.90
15879;DHT22;61999;51.514;14.614;2023-07-31T07:46:37;12.80;70.30
15879;DHT22;61999;51.514;14.614;2023-07-31T07:49:05;12.90;70.30
15879;DHT22;61999;51.514;14.614;2023-07-31T07:51:33;12.80;71.10
15879;DHT22;61999;51.514;14.614;2023-07-31T07:54:02;12.60;72.00
15879;DHT22;61999;51.514;14.614;2023-07-31T07:56:30;12.70;72.60
15879;DHT22;61999;51.514;14.614;2023-07-31T07:58:58;13.10;70.60
15879;DHT22;61999;51.514;14.614;2023-07-31T08:01:26;13.10;70.70
15879;DHT22;61999;51.514;14.614;2023-07-31T08:03:55;12.80;71.70
15879;DHT22;61999;51.514;14.614;2023-07-31T08:06:23;13.30;70.00
15879;DHT22;61999;51.514;14.614;2023-07-31T08:08:51;13.20;70.00
15879;DHT22;61999;51.514;14.614;2023-07-31T08:11:19;13.20;70.80
15879;DHT22;61999;51.514;14.614;2023-07-31T08:13:48;13.20;70.80
15879;DHT22;61999;51.514;14.614;2023-07-31T08:16:16;13.30;70.20
15879;DHT22;61999;51.514;14.614;2023-07-31T08:18:44;13.40;69.70
15879;DHT22;61999;51.514;14.614;2023-07-31T08:21:14;13.20;70.50
15879;DHT22;61999;51.514;14.614;2023-07-31T08:23:42;13.40;69.80
15879;DHT22;61999;51.514;14.614;2023-07-31T08:26:14;13.20;70.10
15879;DHT22;61999;51.514;14.614;2023-07-31T08:28:43;13.40;69.80
15879;DHT22;61999;51.514;14.614;2023-07-31T08:31:11;13.10;70.30
15879;DHT22;61999;51.514;14.614;2023-07-31T08:33:39;13.10;70.50
15879;DHT22;61999;51.514;14.614;2023-07-31T08:36:07;13.10;71.10
15879;DHT22;61999;51.514;14.614;2023-07-31T08:38:37;13.20;71.10
15879;DHT22;61999;51.514;14.614;2023-07-31T08:41:05;13.10;71.40
15879;DHT22;61999;51.514;14.614;2023-07-31T08:43:33;13.10;72.00
15879;DHT22;61999;51.514;14.614;2023-07-31T08:46:06;13.40;70.90
15879;DHT22;61999;51.514;14.614;2023-07-31T08:48:35;13.60;70.60
15879;DHT22;61999;51.514;14.614;2023-07-31T08:51:06;13.70;70.70
15879;DHT22;61999;51.514;14.614;2023-07-31T08:53:34;13.70;69.80
15879;DHT22;61999;51.514;14.614;2023-07-31T08:56:04;14.10;68.20
15879;DHT22;61999;51.514;14.614;2023-07-31T08:58:35;14.00;69.40
15879;DHT22;61999;51.514;14.614;2023-07-31T09:01:05;14.30;67.90
15879;DHT22;61999;51.514;14.614;2023-07-31T09:03:35;14.20;68.90
15879;DHT22;61999;51.514;14.614;2023-07-31T09:06:04;14.40;68.00
15879;DHT22;61999;51.514;14.614;2023-07-31T09:08:33;14.40;69.10
15879;DHT22;61999;51.514;14.614;2023-07-31T09:11:03;14.60;68.40
15879;DHT22;61999;51.514;14.614;2023-07-31T09:13:32;14.80;67.10
15879;DHT22;61999;51.514;14.614;2023-07-31T09:16:00;14.60;69.20
15879;DHT22;61999;51.514;14.614;2023-07-31T09:18:28;14.90;67.10
15879;DHT22;61999;51.514;14.614;2023-07-31T09:21:03;15.00;67.50
15879;DHT22;61999;51.514;14.614;2023-07-31T09:23:42;15.20;66.30
15879;DHT22;61999;51.514;14.614;2023-07-31T09:26:28;15.40;65.20
15879;DHT22;61999;51.514;14.614;2023-07-31T09:28:57;15.60;64.00
15879;DHT22;61999;51.514;14.614;2023-07-31T09:31:33;15.60;64.50
15879;DHT22;61999;51.514;14.614;2023-07-31T09:34:07;15.70;63.20
15879;DHT22;61999;51.514;14.614;2023-07-31T09:36:41;15.70;63.50
15879;DHT22;61999;51.514;14.614;2023-07-31T09:39:10;15.80;62.90
15879;DHT22;61999;51.514;14.614;2023-07-31T09:41:42;15.80;61.70
15879;DHT22;61999;51.514;14.614;2023-07-31T09:44:11;15.60;62.40
15879;DHT22;61999;51.514;14.614;2023-07-31T09:46:39;15.50;62.90
15879;DHT22;61999;51.514;14.614;2023-07-31T09:49:08;15.40;63.00
15879;DHT22;61999;51.514;14.614;2023-07-31T09:51:38;15.20;63.70
15879;DHT22;61999;51.514;14.614;2023-07-31T09:54:10;15.50;62.00
15879;DHT22;61999;51.514;14.614;2023-07-31T09:56:45;15.30;62.80
15879;DHT22;61999;51.514;14.614;2023-07-31T09:59:15;15.40;61.30
15879;DHT22;61999;51.514;14.614;2023-07-31T10:01:46;15.30;61.70
15879;DHT22;61999;51.514;14.614;2023-07-31T10:04:18;15.10;63.50
15879;DHT22;61999;51.514;14.614;2023-07-31T10:06:53;15.30;61.70
15879;DHT22;61999;51.514;14.614;2023-07-31T10:09:24;15.30;62.10
15879;DHT22;61999;51.514;14.614;2023-07-31T10:12:00;15.30;62.40
15879;DHT22;61999;51.514;14.614;2023-07-31T10:14:33;15.60;61.40
15879;DHT22;61999;51.514;14.614;2023-07-31T10:17:02;15.80;62.00
15879;DHT22;61999;51.514;14.614;2023-07-31T10:19:56;16.20;59.30
15879;DHT22;61999;51.514;14.614;2023-07-31T10:22:26;16.00;58.90
15879;DHT22;61999;51.514;14.614;2023-07-31T10:24:58;15.90;59.00
15879;DHT22;61999;51.514;14.614;2023-07-31T10:27:28;15.90;58.40
15879;DHT22;61999;51.514;14.614;2023-07-31T10:29:57;15.90;59.50
15879;DHT22;61999;51.514;14.614;2023-07-31T10:32:27;16.00;57.80
15879;DHT22;61999;51.514;14.614;2023-07-31T10:34:56;15.90;58.70
15879;DHT22;61999;51.514;14.614;2023-07-31T10:37:27;15.80;57.80
15879;DHT22;61999;51.514;14.614;2023-07-31T10:39:57;15.50;57.70
15879;DHT22;61999;51.514;14.614;2023-07-31T10:42:30;14.90;58.70
15879;DHT22;61999;51.514;14.614;2023-07-31T10:45:00;15.00;58.90
15879;DHT22;61999;51.514;14.614;2023-07-31T10:47:29;15.10;58.40
15879;DHT22;61999;51.514;14.614;2023-07-31T10:50:16;14.90;59.00
15879;DHT22;61999;51.514;14.614;2023-07-31T10:52:47;14.90;59.20
15879;DHT22;61999;51.514;14.614;2023-07-31T10:55:30;14.60;59.00
15879;DHT22;61999;51.514;14.614;2023-07-31T10:58:07;14.60;59.50
15879;DHT22;61999;51.514;14.614;2023-07-31T11:00:38;14.60;59.60
15879;DHT22;61999;51.514;14.614;2023-07-31T11:03:08;14.70;58.70
15879;DHT22;61999;51.514;14.614;2023-07-31T11:05:51;14.50;59.60
15879;DHT22;61999;51.514;14.614;2023-07-31T11:08:23;14.80;60.30
15879;DHT22;61999;51.514;14.614;2023-07-31T11:11:05;14.90;58.20
15879;DHT22;61999;51.514;14.614;2023-07-31T11:13:42;15.10;58.40
15879;DHT22;61999;51.514;14.614;2023-07-31T11:16:12;15.40;57.60
15879;DHT22;61999;51.514;14.614;2023-07-31T11:18:42;15.60;56.90
15879;DHT22;61999;51.514;14.614;2023-07-31T11:21:12;15.70;56.70
15879;DHT22;61999;51.514;14.614;2023-07-31T11:23:41;15.80;56.80
15879;DHT22;61999;51.514;14.614;2023-07-31T11:26:14;16.00;56.20
15879;DHT22;61999;51.514;14.614;2023-07-31T11:28:46;16.10;56.00
15879;DHT22;61999;51.514;14.614;2023-07-31T11:31:15;16.00;55.50
15879;DHT22;61999;51.514;14.614;2023-07-31T11:33:44;15.80;55.10
15879;DHT22;61999;51.514;14.614;2023-07-31T11:36:14;15.70;56.50
15879;DHT22;61999;51.514;14.614;2023-07-31T11:38:43;15.70;57.00
15879;DHT22;61999;51.514;14.614;2023-07-31T11:41:14;15.90;56.20
15879;DHT22;61999;51.514;14.614;2023-07-31T11:43:45;16.00;56.30
15879;DHT22;61999;51.514;14.614;2023-07-31T11:46:14;15.80;55.20
15879;DHT22;61999;51.514;14.614;2023-07-31T11:48:43;15.50;55.40
15879;DHT22;61999;51.514;14.614;2023-07-31T11:51:16;15.50;57.30
15879;DHT22;61999;51.514;14.614;2023-07-31T11:53:51;15.80;57.70
15879;DHT22;61999;51.514;14.614;2023-07-31T11:56:21;16.30;57.10
15879;DHT22;61999;51.514;14.614;2023-07-31T11:58:57;16.80;54.50
15879;DHT22;61999;51.514;14.614;2023-07-31T12:01:29;16.90;54.70
15879;DHT22;61999;51.514;14.614;2023-07-31T12:03:57;17.00;54.60
15879;DHT22;61999;51.514;14.614;2023-07-31T12:06:33;17.00;53.90
15879;DHT22;61999;51.514;14.614;2023-07-31T12:09:03;17.00;54.30
15879;DHT22;61999;51.514;14.614;2023-07-31T12:11:32;17.10;54.10
15879;DHT22;61999;51.514;14.614;2023-07-31T12:14:20;17.60;52.80
15879;DHT22;61999;51.514;14.614;2023-07-31T12:16:53;17.70;54.30
15879;DHT22;61999;51.514;14.614;2023-07-31T12:19:22;18.00;52.70
15879;DHT22;61999;51.514;14.614;2023-07-31T12:21:50;18.10;52.50
15879;DHT22;61999;51.514;14.614;2023-07-31T12:24:19;18.30;51.00
15879;DHT22;61999;51.514;14.614;2023-07-31T12:26:48;18.30;51.10
15879;DHT22;61999;51.514;14.614;2023-07-31T12:29:18;18.20;51.50
15879;DHT22;61999;51.514;14.614;2023-07-31T12:31:46;18.00;49.80
15879;DHT22;61999;51.514;14.614;2023-07-31T12:34:15;17.40;49.90
15879;DHT22;61999;51.514;14.614;2023-07-31T12:36:45;17.00;52.40
15879;DHT22;61999;51.514;14.614;2023-07-31T12:39:13;17.00;53.10
15879;DHT22;61999;51.514;14.614;2023-07-31T12:41:41;17.30;52.90
15879;DHT22;61999;51.514;14.614;2023-07-31T12:44:09;17.60;53.10
15879;DHT22;61999;51.514;14.614;2023-07-31T12:46:38;17.90;52.10
15879;DHT22;61999;51.514;14.614;2023-07-31T12:49:06;17.90;51.70
15879;DHT22;61999;51.514;14.614;2023-07-31T12:51:34;18.00;50.60
15879;DHT22;61999;51.514;14.614;2023-07-31T12:54:02;17.80;51.50
15879;DHT22;61999;51.514;14.614;2023-07-31T12:56:31;17.70;50.50
15879;DHT22;61999;51.514;14.614;2023-07-31T12:58:59;17.60;51.30
15879;DHT22;61999;51.514;14.614;2023-07-31T13:01:27;17.60;52.10
15879;DHT22;61999;51.514;14.614;2023-07-31T13:03:56;17.50;51.60
15879;DHT22;61999;51.514;14.614;2023-07-31T13:06:25;17.60;51.50
15879;DHT22;61999;51.514;14.614;2023-07-31T13:08:53;17.20;51.60
15879;DHT22;61999;51.514;14.614;2023-07-31T13:11:21;17.10;52.30
15879;DHT22;61999;51.514;14.614;2023-07-31T13:13:49;17.40;51.00
15879;DHT22;61999;51.514;14.614;2023-07-31T13:16:17;17.60;50.40
15879;DHT22;61999;51.514;14.614;2023-07-31T13:18:45;17.50;50.90
15879;DHT22;61999;51.514;14.614;2023-07-31T13:21:14;17.50;50.90
15879;DHT22;61999;51.514;14.614;2023-07-31T13:23:45;17.40;52.00
15879;DHT22;61999;51.514;14.614;2023-07-31T13:26:13;17.90;50.60
15879;DHT22;61999;51.514;14.614;2023-07-31T13:28:41;18.10;50.20
15879;DHT22;61999;51.514;14.614;2023-07-31T13:31:09;18.30;49.60
15879;DHT22;61999;51.514;14.614;2023-07-31T13:33:38;18.30;50.00
15879;DHT22;61999;51.514;14.614;2023-07-31T13:36:07;18.60;48.80
15879;DHT22;61999;51.514;14.614;2023-07-31T13:38:36;18.70;48.50
15879;DHT22;61999;51.514;14.614;2023-07-31T13:41:04;18.50;48.90
15879;DHT22;61999;51.514;14.614;2023-07-31T13:43:32;18.60;49.70
15879;DHT22;61999;51.514;14.614;2023-07-31T13:46:00;18.70;49.90
15879;DHT22;61999;51.514;14.614;2023-07-31T13:48:34;18.90;49.60
15879;DHT22;61999;51.514;14.614;2023-07-31T13:51:03;19.50;47.70
15879;DHT22;61999;51.514;14.614;2023-07-31T13:53:32;19.50;47.20
15879;DHT22;61999;51.514;14.614;2023-07-31T13:56:02;19.60;47.30
15879;DHT22;61999;51.514;14.614;2023-07-31T14:01:31;19.40;48.80
15879;DHT22;61999;51.514;14.614;2023-07-31T14:04:01;19.60;48.50
15879;DHT22;61999;51.514;14.614;2023-07-31T14:06:30;20.00;47.40
15879;DHT22;61999;51.514;14.614;2023-07-31T14:08:58;20.30;46.50
15879;DHT22;61999;51.514;14.614;2023-07-31T14:11:27;20.30;46.20
15879;DHT22;61999;51.514;14.614;2023-07-31T14:13:55;20.60;45.60
15879;DHT22;61999;51.514;14.614;2023-07-31T14:16:24;20.60;45.80
15879;DHT22;61999;51.514;14.614;2023-07-31T14:18:52;20.30;46.00
15879;DHT22;61999;51.514;14.614;2023-07-31T14:21:20;20.20;46.20
15879;DHT22;61999;51.514;14.614;2023-07-31T14:23:48;20.30;45.70
15879;DHT22;61999;51.514;14.614;2023-07-31T14:26:16;20.10;45.70
15879;DHT22;61999;51.514;14.614;2023-07-31T14:28:45;19.90;46.40
15879;DHT22;61999;51.514;14.614;2023-07-31T14:31:13;19.60;46.70
15879;DHT22;61999;51.514;14.614;2023-07-31T14:33:41;19.60;46.70
15879;DHT22;61999;51.514;14.614;2023-07-31T14:36:09;19.50;46.70
15879;DHT22;61999;51.514;14.614;2023-07-31T14:38:39;19.50;46.70
15879;DHT22;61999;51.514;14.614;2023-07-31T14:41:07;19.30;47.30
15879;DHT22;61999;51.514;14.614;2023-07-31T14:43:35;19.20;47.60
15879;DHT22;61999;51.514;14.614;2023-07-31T14:46:04;18.90;48.20
15879;DHT22;61999;51.514;14.614;2023-07-31T14:48:32;18.90;48.50
15879;DHT22;61999;51.514;14.614;2023-07-31T14:51:00;18.90;48.70
15879;DHT22;61999;51.514;14.614;2023-07-31T14:53:28;18.80;48.70
15879;DHT22;61999;51.514;14.614;2023-07-31T14:55:56;18.90;48.70
15879;DHT22;61999;51.514;14.614;2023-07-31T14:58:25;18.80;47.80
15879;DHT22;61999;51.514;14.614;2023-07-31T15:00:53;18.30;49.30
15879;DHT22;61999;51.514;14.614;2023-07-31T15:03:22;18.20;49.60
15879;DHT22;61999;51.514;14.614;2023-07-31T15:05:51;18.40;48.70
15879;DHT22;61999;51.514;14.614;2023-07-31T15:08:19;18.50;48.80
15879;DHT22;61999;51.514;14.614;2023-07-31T15:10:47;18.80;49.00
15879;DHT22;61999;51.514;14.614;2023-07-31T15:13:16;18.90;50.80
15879;DHT22;61999;51.514;14.614;2023-07-31T15:15:44;19.90;47.10
15879;DHT22;61999;51.514;14.614;2023-07-31T15:18:12;20.60;44.60
15879;DHT22;61999;51.514;14.614;2023-07-31T15:20:41;20.90;42.90
15879;DHT22;61999;51.514;14.614;2023-07-31T15:23:09;20.80;43.40
15879;DHT22;61999;51.514;14.614;2023-07-31T15:25:37;20.60;43.90
15879;DHT22;61999;51.514;14.614;2023-07-31T15:28:05;20.40;44.40
15879;DHT22;61999;51.514;14.614;2023-07-31T15:30:33;20.60;43.50
15879;DHT22;61999;51.514;14.614;2023-07-31T15:33:01;20.40;43.60